Hauptseite
METAR-TAF:

METAR-TAF

Flughäfen :

Flughafen Sofia

Sofia, Bulgarien

Breite: 42-39N, Länge: 023-23E, Höhe: 586 m

Beobachtung

Neuester Wetterbericht von vor 33 Minuten, um 17:30 UTC
Wind 8 kt aus Ost/Nordost
Temperatur 18°C
Luftfeuchtigkeit 56%
Luftdruck 1019 hPa
Sichtweite 10 km oder mehr

METAR: LBSF 261730Z AUTO 07008KT 9999 SCT060/// 18/09 Q1019 NOSIG

Zeit: 21:03 (18:03 UTC)

Prognose

Neuester Wetterbericht von vor 1 Stunde und 3 Minuten, um 17:00 UTC
Gültige Prognose vom 26 um 18 UTC bis 27 um 18 UTC
Wind 10 kt aus Nordost
Sichtweite 10 km oder mehr
Aufgelockert bewölkt in der Höhe von 5000 ft
Übergehend zu
vom 26 um 19 UTC bis 26 um 21 UTC
Wind 4 kt aus unterschiedlichen Richtungen
Übergehend zu
vom 27 um 10 UTC bis 27 um 12 UTC
Wind 10 kt aus Nordost

TAF: LBSF 261700Z 2618/2718 05010KT 9999 SCT050 BECMG 2619/2621 VRB04KT BECMG 2710/2712 05010KT

Wetterbeobachtungen und Prognosen von mehr als 4000 Flughäfen (METAR und TAF Bericht).

Die verfügbaren Stationen werden durch gelbe und rote Markierungen auf der Karte dargestellt.

Führen Sie die Maus auf sie, um den Namen der Station zu sehen.

Darauf klicken, um die Beobachtung von Wetterbeobachtungen und Prognosen zu sehen.

Um die Karte zu ändern : klicken Sie auf den grünen Tasten mit einem schwarzen Kreuz Zum Vergrößern, auf den grünen Button mit einem Gedankenstrich zu verkleinern, oder auf die grünen Pfeile für benachbarte Karten.


METAR-TAF: